sensor_id;sensor_type;location;lat;lon;timestamp;P1;durP1;ratioP1;P2;durP2;ratioP2
49384;SDS011;36795;45.028;38.968;2023-01-16T00:02:00;41.15;;;16.02;;
49384;SDS011;36795;45.028;38.968;2023-01-16T00:04:47;44.42;;;16.98;;
49384;SDS011;36795;45.028;38.968;2023-01-16T00:07:33;36.33;;;16.12;;
49384;SDS011;36795;45.028;38.968;2023-01-16T00:10:19;41.20;;;16.70;;
49384;SDS011;36795;45.028;38.968;2023-01-16T00:13:06;46.92;;;18.23;;
49384;SDS011;36795;45.028;38.968;2023-01-16T00:15:52;43.33;;;16.77;;
49384;SDS011;36795;45.028;38.968;2023-01-16T00:18:38;43.83;;;16.83;;
49384;SDS011;36795;45.028;38.968;2023-01-16T00:21:27;42.80;;;17.23;;
49384;SDS011;36795;45.028;38.968;2023-01-16T00:24:13;44.35;;;16.50;;
49384;SDS011;36795;45.028;38.968;2023-01-16T00:26:59;48.28;;;17.70;;
49384;SDS011;36795;45.028;38.968;2023-01-16T00:29:45;39.72;;;16.10;;
49384;SDS011;36795;45.028;38.968;2023-01-16T00:32:31;37.50;;;16.33;;
49384;SDS011;36795;45.028;38.968;2023-01-16T00:35:17;38.40;;;16.35;;
49384;SDS011;36795;45.028;38.968;2023-01-16T00:38:04;39.30;;;16.87;;
49384;SDS011;36795;45.028;38.968;2023-01-16T00:40:50;44.15;;;18.23;;
49384;SDS011;36795;45.028;38.968;2023-01-16T00:43:36;45.75;;;16.87;;
49384;SDS011;36795;45.028;38.968;2023-01-16T00:46:23;43.53;;;17.45;;
49384;SDS011;36795;45.028;38.968;2023-01-16T00:49:09;42.30;;;16.52;;
49384;SDS011;36795;45.028;38.968;2023-01-16T00:51:55;40.70;;;17.60;;
49384;SDS011;36795;45.028;38.968;2023-01-16T00:54:42;41.33;;;16.52;;
49384;SDS011;36795;45.028;38.968;2023-01-16T01:00:13;42.80;;;17.02;;
49384;SDS011;36795;45.028;38.968;2023-01-16T01:02:59;40.80;;;15.40;;
49384;SDS011;36795;45.028;38.968;2023-01-16T01:05:47;41.33;;;16.08;;
49384;SDS011;36795;45.028;38.968;2023-01-16T01:08:33;44.65;;;17.58;;
49384;SDS011;36795;45.028;38.968;2023-01-16T01:11:19;40.95;;;16.42;;
49384;SDS011;36795;45.028;38.968;2023-01-16T01:14:05;43.17;;;16.70;;
49384;SDS011;36795;45.028;38.968;2023-01-16T01:16:51;48.10;;;17.35;;
49384;SDS011;36795;45.028;38.968;2023-01-16T01:19:37;44.72;;;17.48;;
49384;SDS011;36795;45.028;38.968;2023-01-16T01:22:23;48.78;;;18.00;;
49384;SDS011;36795;45.028;38.968;2023-01-16T01:25:11;46.53;;;17.62;;
49384;SDS011;36795;45.028;38.968;2023-01-16T01:27:57;42.83;;;17.20;;
49384;SDS011;36795;45.028;38.968;2023-01-16T01:30:43;42.38;;;17.25;;
49384;SDS011;36795;45.028;38.968;2023-01-16T01:33:29;43.15;;;18.45;;
49384;SDS011;36795;45.028;38.968;2023-01-16T01:36:15;43.67;;;17.02;;
49384;SDS011;36795;45.028;38.968;2023-01-16T01:39:02;42.67;;;18.80;;
49384;SDS011;36795;45.028;38.968;2023-01-16T01:41:48;45.75;;;17.12;;
49384;SDS011;36795;45.028;38.968;2023-01-16T01:44:44;48.28;;;18.30;;
49384;SDS011;36795;45.028;38.968;2023-01-16T01:47:34;51.55;;;18.05;;
49384;SDS011;36795;45.028;38.968;2023-01-16T01:53:17;45.17;;;18.60;;
49384;SDS011;36795;45.028;38.968;2023-01-16T01:56:06;46.53;;;19.30;;
49384;SDS011;36795;45.028;38.968;2023-01-16T01:58:54;47.10;;;17.83;;
49384;SDS011;36795;45.028;38.968;2023-01-16T02:01:42;46.28;;;19.52;;
49384;SDS011;36795;45.028;38.968;2023-01-16T02:04:30;49.58;;;19.25;;
49384;SDS011;36795;45.028;38.968;2023-01-16T02:07:18;46.15;;;18.48;;
49384;SDS011;36795;45.028;38.968;2023-01-16T02:10:09;40.17;;;18.05;;
49384;SDS011;36795;45.028;38.968;2023-01-16T02:12:57;40.38;;;18.35;;
49384;SDS011;36795;45.028;38.968;2023-01-16T02:15:43;48.13;;;19.05;;
49384;SDS011;36795;45.028;38.968;2023-01-16T02:18:48;44.35;;;18.62;;
49384;SDS011;36795;45.028;38.968;2023-01-16T02:22:11;46.40;;;19.12;;
49384;SDS011;36795;45.028;38.968;2023-01-16T02:25:11;49.80;;;18.80;;
49384;SDS011;36795;45.028;38.968;2023-01-16T02:48:26;49.90;;;20.75;;
49384;SDS011;36795;45.028;38.968;2023-01-16T02:54:27;57.67;;;21.05;;
49384;SDS011;36795;45.028;38.968;2023-01-16T02:57:17;45.28;;;20.27;;
49384;SDS011;36795;45.028;38.968;2023-01-16T03:00:05;51.33;;;21.02;;
49384;SDS011;36795;45.028;38.968;2023-01-16T03:02:52;52.58;;;22.35;;
49384;SDS011;36795;45.028;38.968;2023-01-16T03:05:41;48.28;;;18.30;;
49384;SDS011;36795;45.028;38.968;2023-01-16T03:11:24;50.33;;;20.15;;
49384;SDS011;36795;45.028;38.968;2023-01-16T03:20:22;44.60;;;19.27;;
49384;SDS011;36795;45.028;38.968;2023-01-16T03:26:13;46.08;;;21.40;;
49384;SDS011;36795;45.028;38.968;2023-01-16T03:35:15;40.10;;;17.05;;
49384;SDS011;36795;45.028;38.968;2023-01-16T03:38:07;38.17;;;15.23;;
49384;SDS011;36795;45.028;38.968;2023-01-16T03:40:55;44.90;;;18.08;;
49384;SDS011;36795;45.028;38.968;2023-01-16T03:43:42;39.00;;;16.52;;
49384;SDS011;36795;45.028;38.968;2023-01-16T03:46:31;41.37;;;17.95;;
49384;SDS011;36795;45.028;38.968;2023-01-16T03:49:19;48.42;;;20.08;;
49384;SDS011;36795;45.028;38.968;2023-01-16T03:52:06;43.03;;;18.42;;
49384;SDS011;36795;45.028;38.968;2023-01-16T03:58:03;40.90;;;19.95;;
49384;SDS011;36795;45.028;38.968;2023-01-16T04:03:54;40.20;;;16.95;;
49384;SDS011;36795;45.028;38.968;2023-01-16T04:06:53;42.72;;;18.95;;
49384;SDS011;36795;45.028;38.968;2023-01-16T04:09:42;42.92;;;17.67;;
49384;SDS011;36795;45.028;38.968;2023-01-16T04:12:31;35.85;;;14.38;;
49384;SDS011;36795;45.028;38.968;2023-01-16T04:15:19;40.53;;;16.10;;
49384;SDS011;36795;45.028;38.968;2023-01-16T04:18:05;39.03;;;18.00;;
49384;SDS011;36795;45.028;38.968;2023-01-16T04:20:52;34.55;;;13.65;;
49384;SDS011;36795;45.028;38.968;2023-01-16T04:23:38;38.88;;;16.33;;
49384;SDS011;36795;45.028;38.968;2023-01-16T04:26:24;40.03;;;17.12;;
49384;SDS011;36795;45.028;38.968;2023-01-16T04:29:10;45.97;;;20.00;;
49384;SDS011;36795;45.028;38.968;2023-01-16T04:31:56;48.33;;;20.95;;
49384;SDS011;36795;45.028;38.968;2023-01-16T04:34:42;45.35;;;18.77;;
49384;SDS011;36795;45.028;38.968;2023-01-16T04:37:29;46.72;;;20.12;;
49384;SDS011;36795;45.028;38.968;2023-01-16T04:40:15;54.65;;;20.73;;
49384;SDS011;36795;45.028;38.968;2023-01-16T04:43:02;55.45;;;21.08;;
49384;SDS011;36795;45.028;38.968;2023-01-16T04:45:48;55.25;;;22.30;;
49384;SDS011;36795;45.028;38.968;2023-01-16T04:48:36;50.25;;;22.98;;
49384;SDS011;36795;45.028;38.968;2023-01-16T04:51:22;57.72;;;24.35;;
49384;SDS011;36795;45.028;38.968;2023-01-16T04:54:09;64.03;;;25.95;;
49384;SDS011;36795;45.028;38.968;2023-01-16T04:56:59;58.08;;;24.00;;
49384;SDS011;36795;45.028;38.968;2023-01-16T04:59:47;64.20;;;25.55;;
49384;SDS011;36795;45.028;38.968;2023-01-16T05:02:32;55.45;;;23.60;;
49384;SDS011;36795;45.028;38.968;2023-01-16T05:05:19;53.35;;;22.58;;
49384;SDS011;36795;45.028;38.968;2023-01-16T05:08:06;48.72;;;21.92;;
49384;SDS011;36795;45.028;38.968;2023-01-16T05:11:02;47.53;;;19.30;;
49384;SDS011;36795;45.028;38.968;2023-01-16T05:13:47;43.50;;;19.77;;
49384;SDS011;36795;45.028;38.968;2023-01-16T05:16:35;38.42;;;16.85;;
49384;SDS011;36795;45.028;38.968;2023-01-16T05:19:21;37.08;;;16.77;;
49384;SDS011;36795;45.028;38.968;2023-01-16T05:22:07;44.22;;;16.67;;
49384;SDS011;36795;45.028;38.968;2023-01-16T05:24:53;42.67;;;17.10;;
49384;SDS011;36795;45.028;38.968;2023-01-16T05:27:40;43.47;;;17.30;;
49384;SDS011;36795;45.028;38.968;2023-01-16T05:30:26;43.65;;;17.25;;
49384;SDS011;36795;45.028;38.968;2023-01-16T05:33:12;42.65;;;18.70;;
49384;SDS011;36795;45.028;38.968;2023-01-16T05:35:58;42.42;;;19.65;;
49384;SDS011;36795;45.028;38.968;2023-01-16T05:38:45;38.60;;;15.93;;
49384;SDS011;36795;45.028;38.968;2023-01-16T05:41:31;39.72;;;15.82;;
49384;SDS011;36795;45.028;38.968;2023-01-16T05:44:18;40.90;;;17.73;;
49384;SDS011;36795;45.028;38.968;2023-01-16T05:47:06;44.65;;;18.25;;
49384;SDS011;36795;45.028;38.968;2023-01-16T05:49:53;39.42;;;16.55;;
49384;SDS011;36795;45.028;38.968;2023-01-16T05:52:49;38.15;;;16.27;;
49384;SDS011;36795;45.028;38.968;2023-01-16T05:55:41;38.65;;;17.42;;
49384;SDS011;36795;45.028;38.968;2023-01-16T05:58:27;37.45;;;16.50;;
49384;SDS011;36795;45.028;38.968;2023-01-16T06:01:14;39.47;;;15.73;;
49384;SDS011;36795;45.028;38.968;2023-01-16T06:04:01;39.35;;;16.73;;
49384;SDS011;36795;45.028;38.968;2023-01-16T06:06:48;42.85;;;17.35;;
49384;SDS011;36795;45.028;38.968;2023-01-16T06:09:34;40.00;;;15.95;;
49384;SDS011;36795;45.028;38.968;2023-01-16T06:12:20;47.42;;;17.45;;
49384;SDS011;36795;45.028;38.968;2023-01-16T06:15:07;43.97;;;17.35;;
49384;SDS011;36795;45.028;38.968;2023-01-16T06:17:53;61.10;;;19.67;;
49384;SDS011;36795;45.028;38.968;2023-01-16T06:20:41;77.62;;;20.62;;
49384;SDS011;36795;45.028;38.968;2023-01-16T06:23:28;53.22;;;18.37;;
49384;SDS011;36795;45.028;38.968;2023-01-16T06:26:15;67.75;;;18.50;;
49384;SDS011;36795;45.028;38.968;2023-01-16T06:29:01;46.28;;;18.37;;
49384;SDS011;36795;45.028;38.968;2023-01-16T06:31:48;43.38;;;19.05;;
49384;SDS011;36795;45.028;38.968;2023-01-16T06:34:34;40.08;;;18.05;;
49384;SDS011;36795;45.028;38.968;2023-01-16T06:37:20;40.92;;;18.83;;
49384;SDS011;36795;45.028;38.968;2023-01-16T06:40:07;43.00;;;19.65;;
49384;SDS011;36795;45.028;38.968;2023-01-16T06:42:54;47.90;;;21.15;;
49384;SDS011;36795;45.028;38.968;2023-01-16T06:45:40;47.85;;;22.73;;
49384;SDS011;36795;45.028;38.968;2023-01-16T06:48:27;60.30;;;25.37;;
49384;SDS011;36795;45.028;38.968;2023-01-16T06:51:13;60.30;;;27.08;;
49384;SDS011;36795;45.028;38.968;2023-01-16T06:54:00;71.97;;;28.45;;
49384;SDS011;36795;45.028;38.968;2023-01-16T06:56:47;70.25;;;27.20;;
49384;SDS011;36795;45.028;38.968;2023-01-16T06:59:34;81.97;;;31.42;;
49384;SDS011;36795;45.028;38.968;2023-01-16T07:02:20;69.90;;;28.45;;
49384;SDS011;36795;45.028;38.968;2023-01-16T07:05:10;76.32;;;30.60;;
49384;SDS011;36795;45.028;38.968;2023-01-16T07:07:57;73.72;;;29.80;;
49384;SDS011;36795;45.028;38.968;2023-01-16T07:10:44;74.55;;;27.15;;
49384;SDS011;36795;45.028;38.968;2023-01-16T07:13:30;65.82;;;25.67;;
49384;SDS011;36795;45.028;38.968;2023-01-16T07:16:17;60.40;;;25.75;;
49384;SDS011;36795;45.028;38.968;2023-01-16T07:19:22;62.33;;;26.87;;
49384;SDS011;36795;45.028;38.968;2023-01-16T07:22:27;60.40;;;25.98;;
49384;SDS011;36795;45.028;38.968;2023-01-16T07:25:30;67.00;;;23.98;;
49384;SDS011;36795;45.028;38.968;2023-01-16T07:28:20;57.00;;;24.55;;
49384;SDS011;36795;45.028;38.968;2023-01-16T07:31:06;54.20;;;23.77;;
49384;SDS011;36795;45.028;38.968;2023-01-16T07:33:53;61.67;;;25.35;;
49384;SDS011;36795;45.028;38.968;2023-01-16T07:36:39;59.97;;;25.98;;
49384;SDS011;36795;45.028;38.968;2023-01-16T07:39:26;64.12;;;24.10;;
49384;SDS011;36795;45.028;38.968;2023-01-16T07:42:12;57.67;;;25.37;;
49384;SDS011;36795;45.028;38.968;2023-01-16T07:45:02;53.97;;;23.17;;
49384;SDS011;36795;45.028;38.968;2023-01-16T07:47:48;53.20;;;25.23;;
49384;SDS011;36795;45.028;38.968;2023-01-16T07:50:37;52.83;;;24.55;;
49384;SDS011;36795;45.028;38.968;2023-01-16T07:53:25;50.08;;;22.30;;
49384;SDS011;36795;45.028;38.968;2023-01-16T07:56:12;48.03;;;23.45;;
49384;SDS011;36795;45.028;38.968;2023-01-16T07:58:58;52.90;;;24.15;;
49384;SDS011;36795;45.028;38.968;2023-01-16T08:01:44;54.47;;;24.90;;
49384;SDS011;36795;45.028;38.968;2023-01-16T08:04:31;43.78;;;21.23;;
49384;SDS011;36795;45.028;38.968;2023-01-16T08:07:17;46.05;;;22.37;;
49384;SDS011;36795;45.028;38.968;2023-01-16T08:10:04;45.22;;;20.55;;
49384;SDS011;36795;45.028;38.968;2023-01-16T08:12:50;74.30;;;22.77;;
49384;SDS011;36795;45.028;38.968;2023-01-16T08:15:36;47.90;;;23.48;;
49384;SDS011;36795;45.028;38.968;2023-01-16T08:18:22;46.85;;;21.50;;
49384;SDS011;36795;45.028;38.968;2023-01-16T08:21:09;43.70;;;22.75;;
49384;SDS011;36795;45.028;38.968;2023-01-16T08:23:55;46.10;;;21.83;;
49384;SDS011;36795;45.028;38.968;2023-01-16T08:26:42;46.75;;;22.85;;
49384;SDS011;36795;45.028;38.968;2023-01-16T08:29:28;48.63;;;22.83;;
49384;SDS011;36795;45.028;38.968;2023-01-16T08:32:15;44.15;;;22.30;;
49384;SDS011;36795;45.028;38.968;2023-01-16T08:35:01;43.10;;;21.87;;
49384;SDS011;36795;45.028;38.968;2023-01-16T08:37:49;43.00;;;21.95;;
49384;SDS011;36795;45.028;38.968;2023-01-16T08:40:35;43.53;;;23.20;;
49384;SDS011;36795;45.028;38.968;2023-01-16T08:43:21;47.78;;;23.92;;
49384;SDS011;36795;45.028;38.968;2023-01-16T08:46:27;46.58;;;23.85;;
49384;SDS011;36795;45.028;38.968;2023-01-16T08:49:32;47.42;;;25.27;;
49384;SDS011;36795;45.028;38.968;2023-01-16T08:55:24;44.97;;;25.52;;
49384;SDS011;36795;45.028;38.968;2023-01-16T08:58:10;46.80;;;25.70;;
49384;SDS011;36795;45.028;38.968;2023-01-16T09:00:56;54.42;;;26.80;;
49384;SDS011;36795;45.028;38.968;2023-01-16T09:03:42;50.05;;;27.52;;
49384;SDS011;36795;45.028;38.968;2023-01-16T09:06:29;48.47;;;27.62;;
49384;SDS011;36795;45.028;38.968;2023-01-16T09:09:15;46.37;;;27.40;;
49384;SDS011;36795;45.028;38.968;2023-01-16T09:12:01;48.75;;;29.15;;
49384;SDS011;36795;45.028;38.968;2023-01-16T09:15:06;48.75;;;27.85;;
49384;SDS011;36795;45.028;38.968;2023-01-16T09:17:53;50.60;;;29.87;;
49384;SDS011;36795;45.028;38.968;2023-01-16T09:20:39;49.20;;;28.98;;
49384;SDS011;36795;45.028;38.968;2023-01-16T09:23:25;53.40;;;30.85;;
49384;SDS011;36795;45.028;38.968;2023-01-16T09:26:12;55.63;;;31.37;;
49384;SDS011;36795;45.028;38.968;2023-01-16T09:28:58;56.80;;;31.87;;
49384;SDS011;36795;45.028;38.968;2023-01-16T09:31:44;59.75;;;33.53;;
49384;SDS011;36795;45.028;38.968;2023-01-16T09:34:30;61.37;;;35.70;;
49384;SDS011;36795;45.028;38.968;2023-01-16T09:37:16;67.10;;;35.95;;
49384;SDS011;36795;45.028;38.968;2023-01-16T09:40:03;67.20;;;35.22;;
49384;SDS011;36795;45.028;38.968;2023-01-16T09:42:52;63.53;;;34.65;;
49384;SDS011;36795;45.028;38.968;2023-01-16T09:45:59;65.57;;;38.47;;
49384;SDS011;36795;45.028;38.968;2023-01-16T09:51:44;64.47;;;36.75;;
49384;SDS011;36795;45.028;38.968;2023-01-16T09:54:52;62.25;;;36.00;;
49384;SDS011;36795;45.028;38.968;2023-01-16T09:57:58;61.37;;;36.47;;
49384;SDS011;36795;45.028;38.968;2023-01-16T10:04:18;62.45;;;35.75;;
49384;SDS011;36795;45.028;38.968;2023-01-16T10:10:14;64.22;;;34.00;;
49384;SDS011;36795;45.028;38.968;2023-01-16T10:16:03;66.05;;;35.63;;
49384;SDS011;36795;45.028;38.968;2023-01-16T10:21:52;63.95;;;33.70;;
49384;SDS011;36795;45.028;38.968;2023-01-16T10:24:52;61.10;;;33.03;;
49384;SDS011;36795;45.028;38.968;2023-01-16T10:27:55;63.15;;;34.90;;
49384;SDS011;36795;45.028;38.968;2023-01-16T10:30:49;67.20;;;33.80;;
49384;SDS011;36795;45.028;38.968;2023-01-16T10:33:40;69.90;;;35.60;;
49384;SDS011;36795;45.028;38.968;2023-01-16T10:36:30;62.90;;;36.63;;
49384;SDS011;36795;45.028;38.968;2023-01-16T10:39:18;61.65;;;34.35;;
49384;SDS011;36795;45.028;38.968;2023-01-16T10:48:30;58.70;;;31.02;;
49384;SDS011;36795;45.028;38.968;2023-01-16T10:51:36;59.15;;;30.37;;
49384;SDS011;36795;45.028;38.968;2023-01-16T10:54:22;54.90;;;29.48;;
49384;SDS011;36795;45.028;38.968;2023-01-16T10:57:18;52.67;;;29.02;;
49384;SDS011;36795;45.028;38.968;2023-01-16T11:00:05;62.17;;;30.60;;
49384;SDS011;36795;45.028;38.968;2023-01-16T11:02:53;56.67;;;29.10;;
49384;SDS011;36795;45.028;38.968;2023-01-16T11:05:42;49.17;;;26.50;;
49384;SDS011;36795;45.028;38.968;2023-01-16T11:08:28;59.67;;;29.37;;
49384;SDS011;36795;45.028;38.968;2023-01-16T11:11:15;57.80;;;29.35;;
49384;SDS011;36795;45.028;38.968;2023-01-16T11:14:25;58.45;;;30.17;;
49384;SDS011;36795;45.028;38.968;2023-01-16T11:17:31;58.15;;;27.67;;
49384;SDS011;36795;45.028;38.968;2023-01-16T11:20:36;54.25;;;27.95;;
49384;SDS011;36795;45.028;38.968;2023-01-16T11:23:37;54.28;;;27.73;;
49384;SDS011;36795;45.028;38.968;2023-01-16T11:26:23;54.03;;;29.63;;
49384;SDS011;36795;45.028;38.968;2023-01-16T11:29:12;55.38;;;27.95;;
49384;SDS011;36795;45.028;38.968;2023-01-16T11:32:08;51.53;;;29.00;;
49384;SDS011;36795;45.028;38.968;2023-01-16T11:34:56;59.93;;;27.43;;
49384;SDS011;36795;45.028;38.968;2023-01-16T11:37:44;49.15;;;26.50;;
49384;SDS011;36795;45.028;38.968;2023-01-16T11:40:43;55.50;;;25.95;;
49384;SDS011;36795;45.028;38.968;2023-01-16T11:43:30;46.55;;;25.35;;
49384;SDS011;36795;45.028;38.968;2023-01-16T11:46:40;47.65;;;25.83;;
49384;SDS011;36795;45.028;38.968;2023-01-16T11:49:49;51.72;;;27.00;;
49384;SDS011;36795;45.028;38.968;2023-01-16T11:52:33;54.58;;;28.33;;
49384;SDS011;36795;45.028;38.968;2023-01-16T11:55:23;53.90;;;29.55;;
49384;SDS011;36795;45.028;38.968;2023-01-16T11:58:18;51.80;;;28.15;;
49384;SDS011;36795;45.028;38.968;2023-01-16T12:01:11;50.85;;;27.15;;
49384;SDS011;36795;45.028;38.968;2023-01-16T12:04:02;52.15;;;27.52;;
49384;SDS011;36795;45.028;38.968;2023-01-16T12:10:00;51.35;;;27.30;;
49384;SDS011;36795;45.028;38.968;2023-01-16T12:12:46;49.67;;;24.08;;
49384;SDS011;36795;45.028;38.968;2023-01-16T12:19:09;53.35;;;27.62;;
49384;SDS011;36795;45.028;38.968;2023-01-16T12:22:00;50.08;;;27.77;;
49384;SDS011;36795;45.028;38.968;2023-01-16T12:34:10;55.60;;;28.12;;
49384;SDS011;36795;45.028;38.968;2023-01-16T12:37:02;60.15;;;29.98;;
49384;SDS011;36795;45.028;38.968;2023-01-16T12:39:55;51.72;;;27.37;;
49384;SDS011;36795;45.028;38.968;2023-01-16T12:45:55;48.47;;;26.20;;
49384;SDS011;36795;45.028;38.968;2023-01-16T12:51:46;50.67;;;28.02;;
49384;SDS011;36795;45.028;38.968;2023-01-16T12:54:40;54.97;;;28.52;;
49384;SDS011;36795;45.028;38.968;2023-01-16T12:57:31;54.58;;;28.90;;
49384;SDS011;36795;45.028;38.968;2023-01-16T13:00:23;66.25;;;36.95;;
49384;SDS011;36795;45.028;38.968;2023-01-16T13:06:03;53.78;;;28.02;;
49384;SDS011;36795;45.028;38.968;2023-01-16T13:08:52;53.50;;;28.52;;
49384;SDS011;36795;45.028;38.968;2023-01-16T13:12:03;60.00;;;30.42;;
49384;SDS011;36795;45.028;38.968;2023-01-16T13:15:12;62.60;;;32.63;;
49384;SDS011;36795;45.028;38.968;2023-01-16T13:18:06;61.40;;;32.25;;
49384;SDS011;36795;45.028;38.968;2023-01-16T13:21:02;60.12;;;33.60;;
49384;SDS011;36795;45.028;38.968;2023-01-16T13:23:55;57.83;;;30.88;;
49384;SDS011;36795;45.028;38.968;2023-01-16T13:26:51;67.00;;;36.50;;
49384;SDS011;36795;45.028;38.968;2023-01-16T13:29:39;61.58;;;31.67;;
49384;SDS011;36795;45.028;38.968;2023-01-16T13:32:31;64.40;;;30.83;;
49384;SDS011;36795;45.028;38.968;2023-01-16T13:35:22;64.32;;;30.50;;
49384;SDS011;36795;45.028;38.968;2023-01-16T13:38:32;59.00;;;31.62;;
49384;SDS011;36795;45.028;38.968;2023-01-16T13:41:30;58.85;;;31.05;;
49384;SDS011;36795;45.028;38.968;2023-01-16T13:44:28;60.75;;;32.30;;
49384;SDS011;36795;45.028;38.968;2023-01-16T13:50:25;61.25;;;31.77;;
49384;SDS011;36795;45.028;38.968;2023-01-16T13:53:12;58.40;;;32.88;;
49384;SDS011;36795;45.028;38.968;2023-01-16T13:56:41;60.90;;;32.50;;
49384;SDS011;36795;45.028;38.968;2023-01-16T13:59:20;53.67;;;28.35;;
49384;SDS011;36795;45.028;38.968;2023-01-16T14:05:23;56.40;;;27.37;;
49384;SDS011;36795;45.028;38.968;2023-01-16T14:14:19;51.92;;;27.80;;
49384;SDS011;36795;45.028;38.968;2023-01-16T14:17:27;52.33;;;25.17;;
49384;SDS011;36795;45.028;38.968;2023-01-16T14:23:25;54.13;;;26.23;;
49384;SDS011;36795;45.028;38.968;2023-01-16T14:29:34;53.40;;;26.70;;
49384;SDS011;36795;45.028;38.968;2023-01-16T14:32:25;57.28;;;27.90;;
49384;SDS011;36795;45.028;38.968;2023-01-16T14:35:14;50.63;;;26.65;;
49384;SDS011;36795;45.028;38.968;2023-01-16T14:38:05;62.05;;;28.05;;
49384;SDS011;36795;45.028;38.968;2023-01-16T14:40:53;57.00;;;26.92;;
49384;SDS011;36795;45.028;38.968;2023-01-16T14:44:19;54.03;;;27.45;;
49384;SDS011;36795;45.028;38.968;2023-01-16T14:47:24;64.90;;;26.92;;
49384;SDS011;36795;45.028;38.968;2023-01-16T14:50:43;52.60;;;25.42;;
49384;SDS011;36795;45.028;38.968;2023-01-16T14:53:52;53.40;;;27.37;;
49384;SDS011;36795;45.028;38.968;2023-01-16T14:57:22;57.20;;;27.85;;
49384;SDS011;36795;45.028;38.968;2023-01-16T15:00:17;55.35;;;27.27;;
49384;SDS011;36795;45.028;38.968;2023-01-16T15:03:12;57.83;;;27.58;;
49384;SDS011;36795;45.028;38.968;2023-01-16T15:06:00;56.65;;;26.55;;
49384;SDS011;36795;45.028;38.968;2023-01-16T15:08:48;51.55;;;27.52;;
49384;SDS011;36795;45.028;38.968;2023-01-16T15:11:37;55.42;;;26.67;;
49384;SDS011;36795;45.028;38.968;2023-01-16T15:14:29;66.57;;;28.90;;
49384;SDS011;36795;45.028;38.968;2023-01-16T15:17:25;52.40;;;27.62;;
49384;SDS011;36795;45.028;38.968;2023-01-16T15:20:32;65.45;;;28.17;;
49384;SDS011;36795;45.028;38.968;2023-01-16T15:23:38;59.33;;;27.73;;
49384;SDS011;36795;45.028;38.968;2023-01-16T15:26:27;56.00;;;29.65;;
49384;SDS011;36795;45.028;38.968;2023-01-16T15:32:10;50.25;;;26.25;;
49384;SDS011;36795;45.028;38.968;2023-01-16T15:35:36;50.90;;;28.58;;
49384;SDS011;36795;45.028;38.968;2023-01-16T15:38:15;57.95;;;26.40;;
49384;SDS011;36795;45.028;38.968;2023-01-16T15:41:01;55.28;;;27.00;;
49384;SDS011;36795;45.028;38.968;2023-01-16T15:43:48;61.95;;;26.37;;
49384;SDS011;36795;45.028;38.968;2023-01-16T15:46:57;55.45;;;28.38;;
49384;SDS011;36795;45.028;38.968;2023-01-16T15:50:00;53.95;;;26.05;;
49384;SDS011;36795;45.028;38.968;2023-01-16T15:52:49;67.37;;;28.83;;
49384;SDS011;36795;45.028;38.968;2023-01-16T15:55:37;62.22;;;27.95;;
49384;SDS011;36795;45.028;38.968;2023-01-16T15:58:24;64.05;;;27.05;;
49384;SDS011;36795;45.028;38.968;2023-01-16T16:01:10;63.92;;;29.17;;
49384;SDS011;36795;45.028;38.968;2023-01-16T16:03:57;60.42;;;28.60;;
49384;SDS011;36795;45.028;38.968;2023-01-16T16:06:44;57.75;;;29.37;;
49384;SDS011;36795;45.028;38.968;2023-01-16T16:09:31;54.83;;;26.95;;
49384;SDS011;36795;45.028;38.968;2023-01-16T16:12:17;56.75;;;28.17;;
49384;SDS011;36795;45.028;38.968;2023-01-16T16:15:18;56.28;;;28.75;;
49384;SDS011;36795;45.028;38.968;2023-01-16T16:18:23;61.83;;;31.00;;
49384;SDS011;36795;45.028;38.968;2023-01-16T16:21:11;60.05;;;31.50;;
49384;SDS011;36795;45.028;38.968;2023-01-16T16:24:02;65.07;;;29.20;;
49384;SDS011;36795;45.028;38.968;2023-01-16T16:26:50;61.88;;;29.45;;
49384;SDS011;36795;45.028;38.968;2023-01-16T16:29:36;56.30;;;28.70;;
49384;SDS011;36795;45.028;38.968;2023-01-16T16:32:22;57.30;;;29.33;;
49384;SDS011;36795;45.028;38.968;2023-01-16T16:35:26;58.20;;;30.10;;
49384;SDS011;36795;45.028;38.968;2023-01-16T16:38:21;55.30;;;28.90;;
49384;SDS011;36795;45.028;38.968;2023-01-16T16:43:57;57.45;;;31.98;;
49384;SDS011;36795;45.028;38.968;2023-01-16T16:46:46;54.67;;;30.75;;
49384;SDS011;36795;45.028;38.968;2023-01-16T16:49:52;59.13;;;30.37;;
49384;SDS011;36795;45.028;38.968;2023-01-16T16:52:43;60.20;;;32.38;;
49384;SDS011;36795;45.028;38.968;2023-01-16T16:56:28;64.65;;;32.55;;
49384;SDS011;36795;45.028;38.968;2023-01-16T16:58:55;61.83;;;29.95;;
49384;SDS011;36795;45.028;38.968;2023-01-16T17:01:49;57.65;;;31.77;;
49384;SDS011;36795;45.028;38.968;2023-01-16T17:04:36;57.90;;;30.77;;
49384;SDS011;36795;45.028;38.968;2023-01-16T17:08:15;57.03;;;30.23;;
49384;SDS011;36795;45.028;38.968;2023-01-16T17:11:25;61.80;;;31.95;;
49384;SDS011;36795;45.028;38.968;2023-01-16T17:14:19;57.53;;;29.77;;
49384;SDS011;36795;45.028;38.968;2023-01-16T17:17:18;57.00;;;31.52;;
49384;SDS011;36795;45.028;38.968;2023-01-16T17:20:06;63.95;;;32.72;;
49384;SDS011;36795;45.028;38.968;2023-01-16T17:22:52;61.25;;;30.23;;
49384;SDS011;36795;45.028;38.968;2023-01-16T17:25:39;52.65;;;30.17;;
49384;SDS011;36795;45.028;38.968;2023-01-16T17:28:27;56.22;;;29.77;;
49384;SDS011;36795;45.028;38.968;2023-01-16T17:31:16;56.10;;;30.30;;
49384;SDS011;36795;45.028;38.968;2023-01-16T17:34:02;64.05;;;30.20;;
49384;SDS011;36795;45.028;38.968;2023-01-16T17:36:49;59.88;;;31.73;;
49384;SDS011;36795;45.028;38.968;2023-01-16T17:39:35;59.53;;;29.77;;
49384;SDS011;36795;45.028;38.968;2023-01-16T17:42:22;61.80;;;30.50;;
49384;SDS011;36795;45.028;38.968;2023-01-16T17:48:35;50.42;;;26.92;;
49384;SDS011;36795;45.028;38.968;2023-01-16T17:51:21;61.42;;;30.12;;
49384;SDS011;36795;45.028;38.968;2023-01-16T17:54:09;58.10;;;27.40;;
49384;SDS011;36795;45.028;38.968;2023-01-16T17:57:15;62.78;;;34.35;;
49384;SDS011;36795;45.028;38.968;2023-01-16T18:00:01;63.20;;;31.67;;
49384;SDS011;36795;45.028;38.968;2023-01-16T18:02:49;51.83;;;27.98;;
49384;SDS011;36795;45.028;38.968;2023-01-16T18:05:36;52.80;;;27.15;;
49384;SDS011;36795;45.028;38.968;2023-01-16T18:08:22;52.20;;;25.90;;
49384;SDS011;36795;45.028;38.968;2023-01-16T18:11:10;53.70;;;26.58;;
49384;SDS011;36795;45.028;38.968;2023-01-16T18:14:15;50.58;;;25.65;;
49384;SDS011;36795;45.028;38.968;2023-01-16T18:17:20;50.60;;;24.17;;
49384;SDS011;36795;45.028;38.968;2023-01-16T18:20:06;52.70;;;25.25;;
49384;SDS011;36795;45.028;38.968;2023-01-16T18:22:53;48.45;;;24.65;;
49384;SDS011;36795;45.028;38.968;2023-01-16T18:25:39;56.37;;;25.15;;
49384;SDS011;36795;45.028;38.968;2023-01-16T18:28:25;48.25;;;23.80;;
49384;SDS011;36795;45.028;38.968;2023-01-16T18:31:11;53.20;;;24.30;;
49384;SDS011;36795;45.028;38.968;2023-01-16T18:33:57;50.95;;;23.75;;
49384;SDS011;36795;45.028;38.968;2023-01-16T18:36:43;46.50;;;22.62;;